Terminal Aerodrome Forecast
Issued by NWS

Home | Current Version | Previous Version | Text Only | Print | Product List | Glossary On
Versions: 1 2 3 4 5 6 7 8 9 10 11 12 13 14 15 16 17 18 19
000
FTUS43 KOAX 252300
TAFSNY
TAF
KSNY 252325Z 2600/2624 14008KT P6SM VCTS SCT070CB BKN150
      TEMPO 2600/2603 VRB20G30KT 5SM TSRA BKN050CB
     FM260400 28009KT P6SM SCT110
     FM261600 02012G22KT P6SM SCT070=

USA.gov is the U.S. government's official web portal to all federal, state and local government web resources and services.